Aérodrome :
LOGIN :

S'inscrire | Disclaimer

   EN    FR    IT 

 










Légende :    VFR   VFR Marginal   IFR   IFR Intensif   IFR Très Intensif
Visi : 
Plafond : 
>= 8 km
>= 3000ft
5 à 8 km
1000 à 3000 ft
1500m à 5 km
500 à 1000 ft
800 à 1500m
200 à 500 ft
< 800m
< 200 ft
Symboles :   Orages  Brouillard  Fortes neiges  Fortes précipitations  Vent > 20 kt
SIGMETs :   Divers  Orages  Givrage  Turbulence  Onde Orograph.  Cendres Volcan.







- Altitude de l'aérodrome : 86 ft


LERT - Rota Navy

DERNIER METAR :
  • 181100Z 31011KT 9999 -RA SCT022TCU SCT048 19/16 Q1016 NOSIG

METARs EXPIRÉS :
  • 181000Z 27010KT 250V320 9999 FEW018TCU SCT042 20/17 Q1016 NOSIG
  • 180900Z 25007KT 9999 SCT028 20/17 Q1015 NOSIG
  • 180800Z 25007KT 8000 -RA SCT030 BKN046 18/17 Q1015 NOSIG

TAF TAF LERT
Valide du 18 à 09h jusqu'au 18 à 18h UTC


180800Z 1809/1818 24010KT 9999 FEW020 SCT030
PROB40
TEMPO 1809/1818 4000 SHRA FEW018CB BKN030
PROB40
TEMPO 1809/1818 3000 TSRA SCT020CB
Pas de NOTAMs connus pour ce terrain.
5 SIGMETs publiés pour la FIR Madrid (LECM) :
 
Turbulence forte
LECM SIGMET 8 VALID 180900/181300 LEVA
LECM MADRID FIR/UIR SEV TURB FCST W OF LINE N4440 W006 - N4040 W00510 FL220/320 MOV E 10KT NC=
Orages noyés dans la masse
LECM SIGMET 13 VALID 181100/181400 LEVA
LECM MADRID FIR/UIR EMBD TS FCST E OF LINE N43 W00120 - N4040 W00130 TOP FL380 MOV NE NC=
Turbulence forte
LECM SIGMET 12 VALID 181200/181600 LEVA
LECM MADRID FIR/UIR SEV TURB FCST W OF LINE N4420 W004 - N4040 W00410 FL210/320 MOV E 10KT NC=
Orages noyés dans la masse
LECM SIGMET 11 VALID 181100/181400 LEVA
LECM MADRID FIR/UIR EMBD TS FCST E OF LINE N3930 W00220 - N3720 W00220 TOP FL380 MOV NE NC=
Orages noyés dans la masse
LECM SIGMET 10 VALID 181000/181200 LEVA
LECM MADRID FIR/UIR EMBD TS OBS AT 0945Z E OF LINE N3750 W003 - N3550 W00410 TOP FL400 MOV E NC=



MET'MAP, la Météo Aéronautique d'un coup d'oeil ! - Copyright ORBIFLY Décembre 2007 - Disclaimer

ORBIFLY MET'MAP TEAM :

Programmation & Développement : Alexandra Zaïnal
Conception & Développement : Baudouin d'Aumeries
Co-Programmation & Développement : Marc-Olivier Méhu
Soutien technique & logistique : Manuel Goepfert

Contact : metmap@orbifly.com




SOURCES & CREDITS :

   NOAA